Smith Valley, Nevada Weather observations

Data are for 10 minute period ending at time listed.
 Day   Time   Solar   Ave.   Ave.  Ave.  Vector  Max.   Baro.   Total    
  of    of     Rad.   Air    Rel.  Wind   Wind   Wind  Press.  Precip.   
Year   Day            Temp.  Hum.  Speed  Dir.   Gust                    
2014   (PST)  Kw/m2    F      %     mph   deg.    mph    mb.     in.     
-------------------------------------------------------------------------
 239   21:50   0.00   57.7    40    6.0   156     6.8   855.0    0.00 
 239   22:00   0.00   57.8    38    6.5   151     8.3   855.0    0.00 
 239   22:10   0.00   59.5    35    5.6   156     8.3   855.1    0.00 
 239   22:20   0.00   59.5    36    4.9   155     6.5   855.1    0.00 
 239   22:30   0.00   59.2    36    4.0   186     6.2   855.1    0.00 
 239   22:40   0.00   57.6    41    3.3   165     4.1   855.1    0.00 
 239   22:50   0.00   59.3    36    4.9   146     6.6   855.1    0.00 
 239   23:00   0.00   60.5    33    5.9   150     7.9   855.1    0.00 
 239   23:10   0.00   61.0    32    6.1   155     7.6   855.1    0.00 
 239   23:20   0.00   60.3    34    3.9   172     7.2   855.1    0.00 
 239   23:30   0.00   57.4    42    4.1   167     5.8   855.2    0.00 
 239   23:40   0.00   56.3    41    1.6   270     5.2   855.2    0.00 
 239   23:50   0.00   57.1    38    0.4   238     2.1   855.2    0.00 
 240    0:00   0.00   59.2    33    0.8   110     3.1   855.2    0.00 
 240    0:10   0.00   60.7    31    2.6    86     5.0   855.2    0.00 
 240    0:20   0.00   60.0    32    3.3   137     4.2   855.1    0.00 
 240    0:30   0.00   54.6    44    4.1   175     7.2   855.1    0.00 
 240    0:40   0.00   54.0    44    4.6   152     7.1   855.1    0.00 
 240    0:50   0.00   55.3    42    2.5   129     5.6   855.1    0.00 
 240    1:00   0.00   55.8    40    2.9   114     4.3   855.1    0.00 
 240    1:10   0.00   58.8    33    4.0    67     5.6   855.2    0.00 
 240    1:20   0.00   59.6    33    3.5    80     4.8   855.2    0.00 
 240    1:30   0.00   59.5    32    3.3    89     4.9   855.2    0.00 
 240    1:40   0.00   58.3    34    2.4   108     3.8   855.2    0.00 
 240    1:50   0.00   54.8    42    2.0   128     3.6   855.2    0.00 
 240    2:00   0.00   54.0    44    2.4   120     4.1   855.2    0.00 
 240    2:10   0.00   52.9    45    1.3   189     2.7   855.1    0.00 
 240    2:20   0.00   51.9    50    3.2   168     5.3   855.2    0.00 
 240    2:30   0.00   49.6    55    2.9   142     5.3   855.2    0.00 
 240    2:40   0.00   48.7    57    1.4   136     2.6   855.3    0.00 
 240    2:50   0.00   49.4    54    0.9   160     2.2   855.3    0.00 
 240    3:00   0.00   49.9    53    1.6   132     2.4   855.3    0.00 
 240    3:10   0.00   49.4    53    0.9    74     2.2   855.3    0.00 
 240    3:20   0.00   50.0    50    2.0    48     3.5   855.4    0.00 
 240    3:30   0.00   53.5    45    4.2    57     5.4   855.5    0.00 
 240    3:40   0.00   55.9    42    4.5    58     5.8   855.5    0.00 
 240    3:50   0.00   56.1    39    4.4    76     5.9   855.5    0.00 
 240    4:00   0.00   53.1    45    3.7   128     4.8   855.5    0.00 
 240    4:10   0.00   48.0    57    2.3   165     3.8   855.5    0.00 
 240    4:20   0.00   47.1    60    1.7   200     3.0   855.5    0.00 
 240    4:30   0.00   48.5    55    2.9   165     5.0   855.5    0.00 
 240    4:40   0.00   48.8    52    3.0   155     5.0   855.5    0.00 
 240    4:50   0.00   48.3    55    3.0   175     5.0   855.6    0.00 
 240    5:00   0.00   48.5    55    2.7   149     4.7   855.6    0.00 
 240    5:10   0.00   51.0    49    1.8   155     3.7   855.6    0.00 
 240    5:20   0.00   49.5    53    3.5   169     6.4   855.6    0.00 
 240    5:30   0.01   49.3    53    2.8   144     4.5   855.7    0.00 
 240    5:40   0.02   49.1    52    2.3   125     3.6   855.8    0.00 
 240    5:50   0.04   52.1    45    2.5    90     4.2   855.9    0.00 
 240    6:00   0.06   55.2    39    0.7   238     1.9   856.0    0.00 
 240    6:10   0.08   53.5    47    1.1   184     3.1   856.0    0.00 
 240    6:20   0.11   55.6    46    1.0    99     2.4   856.0    0.00 
 240    6:30   0.14   58.0    42    2.1   113     5.0   856.0    0.00 
 240    6:40   0.17   61.6    36    0.9   118     2.4   856.0    0.00 
 240    6:50   0.20   63.2    34    1.3   144     2.3   855.9    0.00 
 240    7:00   0.23   65.0    32    0.3   272     2.0   855.9    0.00 
 240    7:10   0.27   66.7    30    0.4   280     2.1   855.9    0.00 
 240    7:20   0.30   67.7    29    1.3   348     3.0   856.0    0.00 
 240    7:30   0.34   67.7    32    1.6   359     2.4   856.0    0.00 
 240    7:40   0.37   69.1    29    2.0    11     3.1   856.0    0.00 
 240    7:50   0.40   70.1    30    2.0     9     3.7   856.1    0.00 
 240    8:00   0.39   71.1    27    2.0    22     3.9   856.2    0.00 
 240    8:10   0.47   71.3    30    3.3   350     5.1   856.4    0.00 
 240    8:20   0.51   71.2    31    3.3    29     4.5   856.4    0.00 
 240    8:30   0.54   71.4    33    3.8    22     6.4   856.5    0.00 
 240    8:40   0.57   72.5    31    3.4    25     5.4   856.5    0.00 
 240    8:50   0.60   73.3    30    4.2    31     6.1   856.5    0.00 
 240    9:00   0.63   73.7    30    4.5    19     6.2   856.4    0.00 
 240    9:10   0.66   74.6    28    4.3    33     6.7   856.4    0.00 
 240    9:20   0.69   76.0    27    3.4    40     5.8   856.4    0.00 
 240    9:30   0.71   76.3    28    4.0    32     6.8   856.3    0.00 
 240    9:40   0.74   76.7    25    4.0    18     6.9   856.3    0.00 
 240    9:50   0.76   77.7    25    4.0    28     6.7   856.3    0.00 
 240   10:00   0.78   78.8    23    4.2    16     6.4   856.2    0.00 
 240   10:10   0.81   79.8    21    4.7    32     7.4   856.1    0.00 
 240   10:20   0.80   80.7    20    4.4    36     8.4   856.0    0.00 
 240   10:30   0.83   81.1    20    4.5    26     8.7   855.9    0.00 
 240   10:40   0.86   82.1    19    4.9   350     9.3   855.8    0.00 
 240   10:50   0.87   82.9    18    5.2    24     9.7   855.6    0.00 
 240   11:00   0.89   83.7    17    4.4    24    10.4   855.5    0.00 
 240   11:10   0.89   84.0    16    5.1    40     8.4   855.3    0.00 
 240   11:20   0.91   84.6    16    3.7    18     8.0   855.1    0.00 
 240   11:30   0.92   85.2    15    4.5     5     9.4   854.9    0.00 
 240   11:40   0.93   85.6    15    5.1    11    10.9   854.8    0.00 
 240   11:50   0.93   85.8    14    4.2    15    11.2   854.6    0.00 
 240   12:00   0.91   86.2    14    6.6    11    10.7   854.4    0.00 
 240   12:10   0.93   86.5    14    5.5    45     9.3   854.2    0.00 
 240   12:20   0.93   86.6    14    5.0    52     9.1   854.0    0.00 
 240   12:30   0.93   87.5    13    4.8    58    12.1   853.9    0.00 
 240   12:40   0.93   87.5    13    5.1    16    10.6   853.7    0.00 
 240   12:50   0.92   87.5    13    4.8    30     8.0   853.6    0.00 
 240   13:00   0.91   88.2    13    5.8    58     9.1   853.4    0.00 
 240   13:10   0.89   88.2    13    4.3    36     9.0   853.3    0.00 
 240   13:20   0.89   88.6    12    4.6    34     8.5   853.1    0.00 
 240   13:30   0.88   88.4    12    5.2    22     9.1   852.9    0.00 
 240   13:40   0.86   88.6    12    4.3    30     8.7   852.7    0.00 
 240   13:50   0.85   89.5    12    3.4    18     8.0   852.6    0.00 
 240   14:00   0.83   89.1    12    5.9    12     9.3   852.3    0.00 
 240   14:10   0.81   89.8    12    4.0    34     8.8   852.2    0.00 
 240   14:20   0.79   89.6    12    5.3    21    10.8   852.0    0.00 
 240   14:30   0.77   90.0    12    3.7    29     7.7   851.9    0.00 
 240   14:40   0.74   90.4    12    5.6    39    10.4   851.8    0.00 
 240   14:50   0.72   90.1    12    5.6    37     9.6   851.7    0.00 
 240   15:00   0.70   90.3    13    7.3    11    12.0   851.5    0.00 
 240   15:10   0.67   90.5    12    6.3    39     9.7   851.4    0.00 
 240   15:20   0.64   90.2    14    7.2    24    10.8   851.4    0.00 
 240   15:30   0.61   90.4    14    6.8    29    10.7   851.3    0.00 
 240   15:40   0.58   90.4    14    7.8    41    11.7   851.3    0.00 
 240   15:50   0.55   90.0    14    7.4    11    11.4   851.2    0.00 
 240   16:00   0.51   90.0    15    6.5     8    10.2   851.1    0.00 
 240   16:10   0.48   89.8    14    6.6    30    10.2   851.1    0.00 
 240   16:20   0.45   89.5    15    7.4    34    14.2   851.1    0.00 
 240   16:30   0.41   88.4    16    7.5    31    11.2   851.1    0.00 
 240   16:40   0.35   88.2    17    5.8    29     7.7   851.2    0.00 
 240   16:50   0.12   86.7    19    4.7    33     7.4   851.1    0.00 
 240   17:00   0.23   84.9    20    4.8    34     9.9   851.2    0.00 
 240   17:10   0.26   86.1    18    5.1    34     7.4   851.2    0.00 
 240   17:20   0.23   85.6    19    5.3    24     9.0   851.2    0.00 
 240   17:30   0.20   87.5    14    2.5    34     7.7   851.2    0.00 
 240   17:40   0.16   87.0    17    2.8    24     4.7   851.3    0.00 
 240   17:50   0.12   84.1    23    3.3    24     5.3   851.3    0.00 
 240   18:00   0.11   82.3    23    3.1    39     5.4   851.4    0.00 
 240   18:10   0.07   82.6    19    4.2    15     6.1   851.4    0.00 
 240   18:20   0.03   79.5    25    3.5   331     4.5   851.5    0.00 
 240   18:30   0.01   77.8    26    2.7   349     4.0   851.6    0.00 
 240   18:40   0.01   77.9    26    3.1   357     5.5   851.7    0.00 
 240   18:50   0.00   77.4    26    1.5   306     4.2   851.8    0.00 
 240   19:00   0.00   77.3    26    2.0   281     3.1   851.9    0.00 
 240   19:10   0.00   76.3    27    2.6    99    11.0   852.0    0.00 
 240   19:20   0.00   80.2    24    8.2   265    11.8   852.0    0.00 
 240   19:30   0.00   81.3    23   12.2   262    17.4   852.0    0.00 
 240   19:40   0.00   81.3    24   12.6   254    17.5   852.2    0.00 
 240   19:50   0.00   80.7    24   12.0   252    17.2   852.3    0.00 
 240   20:00   0.00   80.5    24   11.7   253    18.5   852.5    0.00 
 240   20:10   0.00   80.1    24   10.9   257    17.5   852.6    0.00 
 240   20:20   0.00   79.6    25   10.6   252    15.9   852.6    0.00 
 240   20:30   0.00   78.9    25    9.3   246    12.9   852.6    0.00 
 240   20:40   0.00   78.8    26    9.3   246    14.5   852.7    0.00 
 240   20:50   0.00   79.1    25   10.0   249    15.7   852.7    0.00 
 240   21:00   0.00   77.3    28    3.1    72     6.9   853.0    0.00 
 240   21:10   0.00   73.7    31    0.7   198     2.6   853.1    0.00 
 240   21:20   0.00   76.2    28    4.2   284     6.6   852.9    0.00 
 240   21:30   0.00   73.1    32    3.3   168     5.3   852.9    0.00 
 240   21:40   0.00   70.4    36    4.1   205     5.8   852.8    0.00 

Return to Smith Valley graphs page.


Western Regional Climate Center,wrcc@dri.edu